sensor_id;sensor_type;location;lat;lon;timestamp;pressure;altitude;pressure_sealevel;temperature;humidity
54022;BME280;39936;51.058;17.220;2023-08-12T00:01:22;102304.02;;;12.80;100.00
54022;BME280;39936;51.058;17.220;2023-08-12T00:05:21;102304.10;;;12.79;100.00
54022;BME280;39936;51.058;17.220;2023-08-12T00:08:43;102304.06;;;12.77;100.00
54022;BME280;39936;51.058;17.220;2023-08-12T00:12:35;102308.10;;;12.69;100.00
54022;BME280;39936;51.058;17.220;2023-08-12T00:19:45;102303.35;;;12.57;100.00
54022;BME280;39936;51.058;17.220;2023-08-12T00:23:48;102313.12;;;12.55;100.00
54022;BME280;39936;51.058;17.220;2023-08-12T00:27:40;102307.44;;;12.44;100.00
54022;BME280;39936;51.058;17.220;2023-08-12T00:31:03;102310.77;;;12.39;100.00
54022;BME280;39936;51.058;17.220;2023-08-12T00:38:56;102309.49;;;12.36;100.00
54022;BME280;39936;51.058;17.220;2023-08-12T00:46:35;102273.94;;;12.04;100.00
54022;BME280;39936;51.058;17.220;2023-08-12T00:54:16;102286.12;;;12.05;100.00
54022;BME280;39936;51.058;17.220;2023-08-12T00:58:05;102279.15;;;12.09;100.00
54022;BME280;39936;51.058;17.220;2023-08-12T01:01:42;102273.05;;;12.02;100.00
54022;BME280;39936;51.058;17.220;2023-08-12T01:09:24;102269.47;;;11.98;100.00
54022;BME280;39936;51.058;17.220;2023-08-12T01:17:18;102262.08;;;11.99;100.00
54022;BME280;39936;51.058;17.220;2023-08-12T01:21:17;102255.73;;;11.96;100.00
54022;BME280;39936;51.058;17.220;2023-08-12T01:25:01;102263.54;;;11.99;100.00
54022;BME280;39936;51.058;17.220;2023-08-12T01:29:07;102264.77;;;11.88;100.00
54022;BME280;39936;51.058;17.220;2023-08-12T01:33:09;102263.56;;;11.76;100.00
54022;BME280;39936;51.058;17.220;2023-08-12T01:37:05;102266.38;;;11.66;100.00
54022;BME280;39936;51.058;17.220;2023-08-12T01:40:26;102271.41;;;11.62;100.00
54022;BME280;39936;51.058;17.220;2023-08-12T01:44:05;102267.64;;;11.64;100.00
54022;BME280;39936;51.058;17.220;2023-08-12T01:47:58;102262.52;;;11.69;100.00
54022;BME280;39936;51.058;17.220;2023-08-12T01:52:30;102265.26;;;11.77;100.00
54022;BME280;39936;51.058;17.220;2023-08-12T01:56:17;102262.22;;;11.88;100.00
54022;BME280;39936;51.058;17.220;2023-08-12T02:00:15;102265.66;;;11.96;100.00
54022;BME280;39936;51.058;17.220;2023-08-12T02:11:25;102254.50;;;11.86;100.00
54022;BME280;39936;51.058;17.220;2023-08-12T02:15:05;102250.02;;;11.78;100.00
54022;BME280;39936;51.058;17.220;2023-08-12T02:19:14;102228.12;;;11.76;100.00
54022;BME280;39936;51.058;17.220;2023-08-12T02:23:45;102227.80;;;11.98;100.00
54022;BME280;39936;51.058;17.220;2023-08-12T02:27:34;102225.75;;;12.10;100.00
54022;BME280;39936;51.058;17.220;2023-08-12T02:31:00;102213.42;;;12.09;100.00
54022;BME280;39936;51.058;17.220;2023-08-12T02:34:55;102222.41;;;12.20;100.00
54022;BME280;39936;51.058;17.220;2023-08-12T02:42:48;102233.76;;;12.27;100.00
54022;BME280;39936;51.058;17.220;2023-08-12T02:46:27;102235.22;;;12.32;100.00
54022;BME280;39936;51.058;17.220;2023-08-12T02:49:50;102215.82;;;12.23;100.00
54022;BME280;39936;51.058;17.220;2023-08-12T02:53:50;102198.89;;;12.12;100.00
54022;BME280;39936;51.058;17.220;2023-08-12T02:58:00;102234.77;;;12.16;100.00
54022;BME280;39936;51.058;17.220;2023-08-12T03:06:16;102232.34;;;12.14;100.00
54022;BME280;39936;51.058;17.220;2023-08-12T03:17:28;102220.28;;;12.06;100.00
54022;BME280;39936;51.058;17.220;2023-08-12T03:21:40;102231.01;;;12.08;100.00
54022;BME280;39936;51.058;17.220;2023-08-12T03:25:09;102235.23;;;12.16;100.00
54022;BME280;39936;51.058;17.220;2023-08-12T03:29:08;102230.84;;;12.10;100.00
54022;BME280;39936;51.058;17.220;2023-08-12T03:36:14;102227.94;;;12.17;100.00
54022;BME280;39936;51.058;17.220;2023-08-12T03:39:31;102234.56;;;12.28;100.00
54022;BME280;39936;51.058;17.220;2023-08-12T03:43:31;102234.09;;;12.38;100.00
54022;BME280;39936;51.058;17.220;2023-08-12T03:47:08;102232.52;;;12.57;100.00
54022;BME280;39936;51.058;17.220;2023-08-12T03:50:48;102234.95;;;12.74;100.00
54022;BME280;39936;51.058;17.220;2023-08-12T03:54:16;102236.95;;;13.05;100.00
54022;BME280;39936;51.058;17.220;2023-08-12T03:57:32;102231.45;;;13.40;100.00
54022;BME280;39936;51.058;17.220;2023-08-12T04:00:49;102230.20;;;13.75;100.00
54022;BME280;39936;51.058;17.220;2023-08-12T04:04:32;102239.38;;;13.80;100.00
54022;BME280;39936;51.058;17.220;2023-08-12T04:12:05;102225.24;;;14.54;100.00
54022;BME280;39936;51.058;17.220;2023-08-12T04:15:57;102218.49;;;14.85;100.00
54022;BME280;39936;51.058;17.220;2023-08-12T04:19:37;102218.54;;;14.86;100.00
54022;BME280;39936;51.058;17.220;2023-08-12T04:23:34;102217.79;;;14.79;100.00
54022;BME280;39936;51.058;17.220;2023-08-12T04:27:24;102211.72;;;14.94;100.00
54022;BME280;39936;51.058;17.220;2023-08-12T04:30:45;102215.23;;;14.89;100.00
54022;BME280;39936;51.058;17.220;2023-08-12T04:34:28;102218.75;;;14.90;100.00
54022;BME280;39936;51.058;17.220;2023-08-12T04:38:42;102218.20;;;15.15;100.00
54022;BME280;39936;51.058;17.220;2023-08-12T04:42:17;102215.10;;;15.94;100.00
54022;BME280;39936;51.058;17.220;2023-08-12T04:46:40;102202.88;;;16.63;97.59
54022;BME280;39936;51.058;17.220;2023-08-12T04:50:29;102205.84;;;17.23;94.77
54022;BME280;39936;51.058;17.220;2023-08-12T04:53:50;102201.31;;;16.84;90.93
54022;BME280;39936;51.058;17.220;2023-08-12T04:57:29;102199.65;;;16.48;92.91
54022;BME280;39936;51.058;17.220;2023-08-12T05:05:34;102200.75;;;16.23;96.67
54022;BME280;39936;51.058;17.220;2023-08-12T05:09:14;102194.87;;;16.13;96.93
54022;BME280;39936;51.058;17.220;2023-08-12T05:13:07;102192.14;;;16.08;98.39
54022;BME280;39936;51.058;17.220;2023-08-12T05:16:50;102192.45;;;16.06;98.41
54022;BME280;39936;51.058;17.220;2023-08-12T05:20:26;102193.33;;;16.12;99.69
54022;BME280;39936;51.058;17.220;2023-08-12T05:24:42;102197.64;;;16.45;99.56
54022;BME280;39936;51.058;17.220;2023-08-12T05:28:13;102193.20;;;16.70;95.63
54022;BME280;39936;51.058;17.220;2023-08-12T05:31:46;102198.12;;;16.98;94.10
54022;BME280;39936;51.058;17.220;2023-08-12T05:35:03;102186.13;;;17.45;94.46
54022;BME280;39936;51.058;17.220;2023-08-12T05:42:44;102179.21;;;17.90;87.75
54022;BME280;39936;51.058;17.220;2023-08-12T05:46:35;102167.22;;;17.98;86.80
54022;BME280;39936;51.058;17.220;2023-08-12T05:49:56;102157.27;;;18.19;87.90
54022;BME280;39936;51.058;17.220;2023-08-12T05:53:14;102158.66;;;18.14;86.41
54022;BME280;39936;51.058;17.220;2023-08-12T05:57:00;102126.73;;;17.96;86.48
54022;BME280;39936;51.058;17.220;2023-08-12T06:01:06;102158.48;;;18.18;84.68
54022;BME280;39936;51.058;17.220;2023-08-12T06:05:09;102158.33;;;18.33;84.48
54022;BME280;39936;51.058;17.220;2023-08-12T06:09:10;102149.93;;;18.57;81.70
54022;BME280;39936;51.058;17.220;2023-08-12T06:12:50;102147.02;;;18.52;79.95
54022;BME280;39936;51.058;17.220;2023-08-12T06:16:40;102148.70;;;18.54;80.60
54022;BME280;39936;51.058;17.220;2023-08-12T06:20:36;102147.02;;;18.64;79.90
54022;BME280;39936;51.058;17.220;2023-08-12T06:24:27;102144.96;;;18.85;80.45
54022;BME280;39936;51.058;17.220;2023-08-12T06:28:09;102142.42;;;19.18;78.54
54022;BME280;39936;51.058;17.220;2023-08-12T06:35:53;102139.72;;;19.59;76.06
54022;BME280;39936;51.058;17.220;2023-08-12T06:39:32;102137.84;;;19.58;75.01
54022;BME280;39936;51.058;17.220;2023-08-12T06:43:13;102139.27;;;19.75;73.66
54022;BME280;39936;51.058;17.220;2023-08-12T06:47:03;102132.13;;;19.96;73.74
54022;BME280;39936;51.058;17.220;2023-08-12T06:50:20;102126.23;;;20.26;73.45
54022;BME280;39936;51.058;17.220;2023-08-12T06:54:12;102123.12;;;20.57;73.19
54022;BME280;39936;51.058;17.220;2023-08-12T06:58:17;102118.53;;;20.81;70.23
54022;BME280;39936;51.058;17.220;2023-08-12T07:01:39;102115.13;;;20.76;70.75
54022;BME280;39936;51.058;17.220;2023-08-12T07:09:20;102106.50;;;21.26;71.48
54022;BME280;39936;51.058;17.220;2023-08-12T07:12:46;102092.78;;;21.34;68.41
54022;BME280;39936;51.058;17.220;2023-08-12T07:16:19;102105.86;;;21.56;68.31
54022;BME280;39936;51.058;17.220;2023-08-12T07:24:09;102104.80;;;21.61;68.23
54022;BME280;39936;51.058;17.220;2023-08-12T07:28:16;102102.47;;;21.81;66.70
54022;BME280;39936;51.058;17.220;2023-08-12T07:32:30;102092.04;;;22.45;67.70
54022;BME280;39936;51.058;17.220;2023-08-12T07:36:11;102096.21;;;22.40;63.62
54022;BME280;39936;51.058;17.220;2023-08-12T07:39:43;102094.42;;;22.72;66.82
54022;BME280;39936;51.058;17.220;2023-08-12T07:43:21;102084.60;;;23.09;64.96
54022;BME280;39936;51.058;17.220;2023-08-12T07:46:52;102081.68;;;23.25;64.76
54022;BME280;39936;51.058;17.220;2023-08-12T07:50:45;102072.91;;;23.69;63.55
54022;BME280;39936;51.058;17.220;2023-08-12T07:54:15;102052.34;;;23.22;61.01
54022;BME280;39936;51.058;17.220;2023-08-12T07:58:17;102052.17;;;23.36;60.52
54022;BME280;39936;51.058;17.220;2023-08-12T08:02:05;102077.48;;;23.59;62.02
54022;BME280;39936;51.058;17.220;2023-08-12T08:06:00;102073.95;;;23.33;60.79
54022;BME280;39936;51.058;17.220;2023-08-12T08:09:59;102069.88;;;23.79;63.74
54022;BME280;39936;51.058;17.220;2023-08-12T08:13:47;102057.37;;;23.94;62.17
54022;BME280;39936;51.058;17.220;2023-08-12T08:17:45;102031.35;;;24.31;61.29
54022;BME280;39936;51.058;17.220;2023-08-12T08:21:46;102054.48;;;24.87;62.23
54022;BME280;39936;51.058;17.220;2023-08-12T08:25:28;102058.84;;;24.44;56.80
54022;BME280;39936;51.058;17.220;2023-08-12T08:29:14;102049.06;;;24.37;59.21
54022;BME280;39936;51.058;17.220;2023-08-12T08:32:34;102046.89;;;24.62;59.43
54022;BME280;39936;51.058;17.220;2023-08-12T08:36:26;102056.48;;;24.95;58.98
54022;BME280;39936;51.058;17.220;2023-08-12T08:40:03;102050.55;;;25.11;54.60
54022;BME280;39936;51.058;17.220;2023-08-12T08:43:24;102050.12;;;25.12;57.20
54022;BME280;39936;51.058;17.220;2023-08-12T08:47:06;102036.33;;;25.23;56.25
54022;BME280;39936;51.058;17.220;2023-08-12T08:50:44;102043.56;;;24.91;55.88
54022;BME280;39936;51.058;17.220;2023-08-12T08:55:00;102038.62;;;25.00;58.37
54022;BME280;39936;51.058;17.220;2023-08-12T08:58:43;102032.70;;;25.21;58.47
54022;BME280;39936;51.058;17.220;2023-08-12T09:02:32;102022.56;;;25.53;55.15
54022;BME280;39936;51.058;17.220;2023-08-12T09:06:54;102031.81;;;25.53;53.93
54022;BME280;39936;51.058;17.220;2023-08-12T09:10:26;102031.67;;;25.35;56.38
54022;BME280;39936;51.058;17.220;2023-08-12T09:14:12;102033.43;;;25.56;55.69
54022;BME280;39936;51.058;17.220;2023-08-12T09:18:00;102031.95;;;25.57;54.61
54022;BME280;39936;51.058;17.220;2023-08-12T09:22:05;102004.16;;;25.32;54.24
54022;BME280;39936;51.058;17.220;2023-08-12T09:30:13;102030.55;;;24.94;54.64
54022;BME280;39936;51.058;17.220;2023-08-12T09:38:46;102005.92;;;25.31;55.26
54022;BME280;39936;51.058;17.220;2023-08-12T09:42:19;102008.56;;;25.86;54.44
54022;BME280;39936;51.058;17.220;2023-08-12T09:46:10;102009.27;;;25.89;54.33
54022;BME280;39936;51.058;17.220;2023-08-12T09:49:28;102003.18;;;26.27;54.30
54022;BME280;39936;51.058;17.220;2023-08-12T09:53:30;102000.55;;;25.95;51.74
54022;BME280;39936;51.058;17.220;2023-08-12T10:01:05;101994.62;;;25.88;52.29
54022;BME280;39936;51.058;17.220;2023-08-12T10:05:32;101994.41;;;25.79;52.10
54022;BME280;39936;51.058;17.220;2023-08-12T10:09:25;101991.93;;;25.76;51.87
54022;BME280;39936;51.058;17.220;2023-08-12T10:12:42;101991.59;;;25.90;54.41
54022;BME280;39936;51.058;17.220;2023-08-12T10:16:21;101984.26;;;26.10;53.98
54022;BME280;39936;51.058;17.220;2023-08-12T10:20:02;101984.80;;;26.22;53.16
54022;BME280;39936;51.058;17.220;2023-08-12T10:24:24;101979.23;;;26.28;51.89
54022;BME280;39936;51.058;17.220;2023-08-12T10:28:25;101965.97;;;26.65;52.15
54022;BME280;39936;51.058;17.220;2023-08-12T10:32:10;101968.98;;;26.64;50.81
54022;BME280;39936;51.058;17.220;2023-08-12T10:39:42;101951.41;;;27.13;48.44
54022;BME280;39936;51.058;17.220;2023-08-12T10:47:16;101945.02;;;27.29;48.80
54022;BME280;39936;51.058;17.220;2023-08-12T10:50:31;101934.14;;;27.44;48.36
54022;BME280;39936;51.058;17.220;2023-08-12T10:54:22;101913.37;;;27.62;49.97
54022;BME280;39936;51.058;17.220;2023-08-12T11:06:21;101925.13;;;28.02;49.30
54022;BME280;39936;51.058;17.220;2023-08-12T11:09:53;101899.44;;;28.04;49.27
54022;BME280;39936;51.058;17.220;2023-08-12T11:13:57;101905.12;;;28.01;50.40
54022;BME280;39936;51.058;17.220;2023-08-12T11:17:16;101916.04;;;27.79;50.16
54022;BME280;39936;51.058;17.220;2023-08-12T11:21:06;101909.54;;;27.86;48.02
54022;BME280;39936;51.058;17.220;2023-08-12T11:24:51;101907.48;;;27.82;50.63
54022;BME280;39936;51.058;17.220;2023-08-12T11:28:25;101904.02;;;27.92;48.39
54022;BME280;39936;51.058;17.220;2023-08-12T11:36:05;101904.07;;;27.91;46.33
54022;BME280;39936;51.058;17.220;2023-08-12T11:39:47;101902.31;;;27.98;49.69
54022;BME280;39936;51.058;17.220;2023-08-12T11:43:50;101895.59;;;27.79;46.05
54022;BME280;39936;51.058;17.220;2023-08-12T11:47:10;101888.43;;;27.41;47.31
54022;BME280;39936;51.058;17.220;2023-08-12T11:51:06;101882.43;;;27.39;48.01
54022;BME280;39936;51.058;17.220;2023-08-12T11:54:28;101879.84;;;27.54;49.75
54022;BME280;39936;51.058;17.220;2023-08-12T11:58:21;101875.60;;;27.82;51.73
54022;BME280;39936;51.058;17.220;2023-08-12T12:02:03;101872.69;;;28.08;49.11
54022;BME280;39936;51.058;17.220;2023-08-12T12:05:34;101863.51;;;28.40;48.61
54022;BME280;39936;51.058;17.220;2023-08-12T12:09:37;101852.73;;;28.59;47.87
54022;BME280;39936;51.058;17.220;2023-08-12T12:17:10;101850.49;;;28.72;47.47
54022;BME280;39936;51.058;17.220;2023-08-12T12:20:55;101844.20;;;28.83;48.93
54022;BME280;39936;51.058;17.220;2023-08-12T12:28:27;101823.41;;;29.03;47.84
54022;BME280;39936;51.058;17.220;2023-08-12T12:32:20;101832.55;;;29.28;46.90
54022;BME280;39936;51.058;17.220;2023-08-12T12:36:14;101832.26;;;29.32;47.50
54022;BME280;39936;51.058;17.220;2023-08-12T12:39:49;101820.03;;;29.38;46.93
54022;BME280;39936;51.058;17.220;2023-08-12T12:43:23;101805.59;;;29.29;47.19
54022;BME280;39936;51.058;17.220;2023-08-12T12:46:56;101822.23;;;29.33;44.91
54022;BME280;39936;51.058;17.220;2023-08-12T12:55:11;101803.56;;;29.14;45.03
54022;BME280;39936;51.058;17.220;2023-08-12T12:58:35;101812.51;;;29.13;43.42
54022;BME280;39936;51.058;17.220;2023-08-12T13:02:14;101811.09;;;29.02;44.56
54022;BME280;39936;51.058;17.220;2023-08-12T13:05:50;101812.55;;;29.07;43.78
54022;BME280;39936;51.058;17.220;2023-08-12T13:09:54;101808.26;;;29.26;45.49
54022;BME280;39936;51.058;17.220;2023-08-12T13:13:35;101806.88;;;29.36;46.24
54022;BME280;39936;51.058;17.220;2023-08-12T13:20:47;101800.54;;;29.41;46.03
54022;BME280;39936;51.058;17.220;2023-08-12T13:24:27;101798.63;;;29.30;42.81
54022;BME280;39936;51.058;17.220;2023-08-12T13:28:02;101791.79;;;29.24;45.04
54022;BME280;39936;51.058;17.220;2023-08-12T13:31:19;101789.16;;;29.14;42.93
54022;BME280;39936;51.058;17.220;2023-08-12T13:34:56;101774.34;;;29.10;43.19
54022;BME280;39936;51.058;17.220;2023-08-12T13:38:45;101779.28;;;29.23;44.04
54022;BME280;39936;51.058;17.220;2023-08-12T13:42:31;101772.30;;;29.28;43.63
54022;BME280;39936;51.058;17.220;2023-08-12T13:46:41;101773.65;;;29.15;42.16
54022;BME280;39936;51.058;17.220;2023-08-12T13:50:20;101741.03;;;29.05;43.92
54022;BME280;39936;51.058;17.220;2023-08-12T13:57:54;101748.91;;;29.60;44.37
54022;BME280;39936;51.058;17.220;2023-08-12T14:01:56;101736.41;;;29.58;44.28
54022;BME280;39936;51.058;17.220;2023-08-12T14:09:35;101733.52;;;29.56;42.40
54022;BME280;39936;51.058;17.220;2023-08-12T14:17:24;101718.84;;;30.11;44.37
54022;BME280;39936;51.058;17.220;2023-08-12T14:21:26;101718.45;;;30.04;41.63
54022;BME280;39936;51.058;17.220;2023-08-12T14:25:01;101716.71;;;30.00;44.16
54022;BME280;39936;51.058;17.220;2023-08-12T14:28:51;101697.38;;;30.11;43.02
54022;BME280;39936;51.058;17.220;2023-08-12T14:32:30;101704.01;;;30.19;41.00
54022;BME280;39936;51.058;17.220;2023-08-12T14:36:03;101686.04;;;29.97;43.18
54022;BME280;39936;51.058;17.220;2023-08-12T14:40:27;101697.55;;;29.71;42.08
54022;BME280;39936;51.058;17.220;2023-08-12T14:44:20;101691.56;;;29.74;42.02
54022;BME280;39936;51.058;17.220;2023-08-12T14:47:38;101688.28;;;29.70;40.99
54022;BME280;39936;51.058;17.220;2023-08-12T14:51:24;101674.03;;;29.41;42.59
54022;BME280;39936;51.058;17.220;2023-08-12T14:55:34;101681.87;;;29.34;42.09
54022;BME280;39936;51.058;17.220;2023-08-12T14:58:53;101668.77;;;29.12;43.27
54022;BME280;39936;51.058;17.220;2023-08-12T15:02:48;101674.74;;;29.24;43.54
54022;BME280;39936;51.058;17.220;2023-08-12T15:06:38;101668.48;;;29.25;43.52
54022;BME280;39936;51.058;17.220;2023-08-12T15:10:24;101655.16;;;29.17;41.85
54022;BME280;39936;51.058;17.220;2023-08-12T15:14:25;101661.98;;;29.34;42.79
54022;BME280;39936;51.058;17.220;2023-08-12T15:18:07;101657.27;;;29.51;43.98
54022;BME280;39936;51.058;17.220;2023-08-12T15:22:10;101656.70;;;29.53;42.82
54022;BME280;39936;51.058;17.220;2023-08-12T15:29:17;101647.37;;;29.28;43.37
54022;BME280;39936;51.058;17.220;2023-08-12T15:32:32;101645.29;;;29.25;43.42
54022;BME280;39936;51.058;17.220;2023-08-12T15:36:20;101640.46;;;29.13;43.18
54022;BME280;39936;51.058;17.220;2023-08-12T15:40:01;101642.23;;;29.13;42.86
54022;BME280;39936;51.058;17.220;2023-08-12T15:43:37;101642.56;;;29.04;43.48
54022;BME280;39936;51.058;17.220;2023-08-12T15:47:27;101640.35;;;29.10;43.76
54022;BME280;39936;51.058;17.220;2023-08-12T15:51:25;101630.71;;;29.01;43.54
54022;BME280;39936;51.058;17.220;2023-08-12T15:55:15;101633.29;;;29.09;42.84
54022;BME280;39936;51.058;17.220;2023-08-12T16:02:44;101631.65;;;29.06;44.43
54022;BME280;39936;51.058;17.220;2023-08-12T16:10:28;101623.66;;;28.88;43.88
54022;BME280;39936;51.058;17.220;2023-08-12T16:14:12;101623.39;;;28.83;44.32
54022;BME280;39936;51.058;17.220;2023-08-12T16:17:27;101622.65;;;28.81;43.36
54022;BME280;39936;51.058;17.220;2023-08-12T16:21:18;101622.45;;;28.80;44.23
54022;BME280;39936;51.058;17.220;2023-08-12T16:25:08;101622.95;;;28.79;44.55
54022;BME280;39936;51.058;17.220;2023-08-12T16:28:27;101618.77;;;28.73;43.97
54022;BME280;39936;51.058;17.220;2023-08-12T16:32:24;101611.89;;;28.64;44.46
54022;BME280;39936;51.058;17.220;2023-08-12T16:35:39;101617.42;;;28.65;44.19
54022;BME280;39936;51.058;17.220;2023-08-12T16:38:54;101617.56;;;28.56;44.76
54022;BME280;39936;51.058;17.220;2023-08-12T16:42:14;101611.24;;;28.53;45.35
54022;BME280;39936;51.058;17.220;2023-08-12T16:45:28;101608.58;;;28.48;45.32
54022;BME280;39936;51.058;17.220;2023-08-12T16:48:57;101612.07;;;28.48;45.54
54022;BME280;39936;51.058;17.220;2023-08-12T16:52:36;101614.98;;;28.32;45.52
54022;BME280;39936;51.058;17.220;2023-08-12T16:56:13;101613.45;;;28.28;46.12
54022;BME280;39936;51.058;17.220;2023-08-12T16:59:53;101614.80;;;28.11;46.26
54022;BME280;39936;51.058;17.220;2023-08-12T17:03:16;101618.30;;;28.00;46.85
54022;BME280;39936;51.058;17.220;2023-08-12T17:06:32;101614.45;;;27.81;47.27
54022;BME280;39936;51.058;17.220;2023-08-12T17:09:49;101616.78;;;27.56;48.17
54022;BME280;39936;51.058;17.220;2023-08-12T17:13:51;101613.32;;;27.35;48.60
54022;BME280;39936;51.058;17.220;2023-08-12T17:17:29;101616.48;;;27.16;49.21
54022;BME280;39936;51.058;17.220;2023-08-12T17:24:37;101621.69;;;26.78;50.05
54022;BME280;39936;51.058;17.220;2023-08-12T17:27:51;101626.16;;;26.65;50.63
54022;BME280;39936;51.058;17.220;2023-08-12T17:31:12;101630.61;;;26.49;51.58
54022;BME280;39936;51.058;17.220;2023-08-12T17:35:12;101615.16;;;26.28;52.42
54022;BME280;39936;51.058;17.220;2023-08-12T17:38:30;101622.06;;;26.17;52.12
54022;BME280;39936;51.058;17.220;2023-08-12T17:42:06;101630.90;;;26.06;52.42
54022;BME280;39936;51.058;17.220;2023-08-12T17:46:07;101627.16;;;25.87;53.13
54022;BME280;39936;51.058;17.220;2023-08-12T17:49:52;101630.70;;;25.71;53.93
54022;BME280;39936;51.058;17.220;2023-08-12T17:53:44;101634.08;;;25.55;54.24
54022;BME280;39936;51.058;17.220;2023-08-12T18:05:08;101627.39;;;25.13;56.40
54022;BME280;39936;51.058;17.220;2023-08-12T18:08:33;101624.66;;;24.92;57.18
54022;BME280;39936;51.058;17.220;2023-08-12T18:12:10;101627.10;;;24.65;57.12
54022;BME280;39936;51.058;17.220;2023-08-12T18:16:04;101637.63;;;24.51;57.84
54022;BME280;39936;51.058;17.220;2023-08-12T18:20:01;101645.77;;;24.46;58.60
54022;BME280;39936;51.058;17.220;2023-08-12T18:23:50;101645.52;;;24.33;58.87
54022;BME280;39936;51.058;17.220;2023-08-12T18:31:14;101657.56;;;24.11;59.64
54022;BME280;39936;51.058;17.220;2023-08-12T18:34:51;101662.61;;;24.00;60.24
54022;BME280;39936;51.058;17.220;2023-08-12T18:39:08;101674.88;;;23.85;60.01
54022;BME280;39936;51.058;17.220;2023-08-12T18:43:03;101678.80;;;23.72;60.53
54022;BME280;39936;51.058;17.220;2023-08-12T18:46:57;101668.77;;;23.50;63.09
54022;BME280;39936;51.058;17.220;2023-08-12T18:50:36;101685.03;;;23.46;63.45
54022;BME280;39936;51.058;17.220;2023-08-12T18:54:52;101686.14;;;23.37;63.00
54022;BME280;39936;51.058;17.220;2023-08-12T18:58:28;101677.37;;;23.31;63.18
54022;BME280;39936;51.058;17.220;2023-08-12T19:02:31;101677.93;;;23.25;64.07
54022;BME280;39936;51.058;17.220;2023-08-12T19:07:02;101680.00;;;23.21;63.96
54022;BME280;39936;51.058;17.220;2023-08-12T19:10:22;101679.55;;;23.18;64.98
54022;BME280;39936;51.058;17.220;2023-08-12T19:13:47;101650.13;;;22.99;65.58
54022;BME280;39936;51.058;17.220;2023-08-12T19:18:14;101661.04;;;22.99;67.14
54022;BME280;39936;51.058;17.220;2023-08-12T19:23:15;101661.82;;;22.93;67.34
54022;BME280;39936;51.058;17.220;2023-08-12T19:27:37;101667.49;;;22.78;68.44
54022;BME280;39936;51.058;17.220;2023-08-12T19:31:53;101641.27;;;22.61;67.80
54022;BME280;39936;51.058;17.220;2023-08-12T19:36:25;101664.52;;;22.72;67.83
54022;BME280;39936;51.058;17.220;2023-08-12T19:40:15;101662.55;;;22.67;67.49
54022;BME280;39936;51.058;17.220;2023-08-12T19:43:52;101664.66;;;22.71;67.11
54022;BME280;39936;51.058;17.220;2023-08-12T19:47:44;101666.09;;;22.62;68.68
54022;BME280;39936;51.058;17.220;2023-08-12T19:51:56;101645.94;;;22.37;69.48
54022;BME280;39936;51.058;17.220;2023-08-12T19:55:23;101665.24;;;22.39;70.01
54022;BME280;39936;51.058;17.220;2023-08-12T19:59:23;101667.45;;;22.35;69.30
54022;BME280;39936;51.058;17.220;2023-08-12T20:03:03;101664.37;;;22.31;69.21
54022;BME280;39936;51.058;17.220;2023-08-12T20:10:54;101667.50;;;22.26;69.62
54022;BME280;39936;51.058;17.220;2023-08-12T20:14:23;101668.23;;;22.25;69.57
54022;BME280;39936;51.058;17.220;2023-08-12T20:18:26;101667.06;;;22.25;69.59
54022;BME280;39936;51.058;17.220;2023-08-12T20:22:05;101637.24;;;22.04;70.06
54022;BME280;39936;51.058;17.220;2023-08-12T20:25:37;101667.49;;;22.22;69.88
54022;BME280;39936;51.058;17.220;2023-08-12T20:29:40;101665.73;;;22.16;71.30
54022;BME280;39936;51.058;17.220;2023-08-12T20:33:29;101668.34;;;22.12;71.55
54022;BME280;39936;51.058;17.220;2023-08-12T20:36:49;101666.34;;;22.16;71.49
54022;BME280;39936;51.058;17.220;2023-08-12T20:40:33;101667.29;;;22.17;71.16
54022;BME280;39936;51.058;17.220;2023-08-12T20:48:12;101672.12;;;22.02;73.43
54022;BME280;39936;51.058;17.220;2023-08-12T20:52:37;101669.07;;;21.75;74.92
54022;BME280;39936;51.058;17.220;2023-08-12T20:56:27;101667.65;;;21.47;75.56
54022;BME280;39936;51.058;17.220;2023-08-12T21:00:11;101667.15;;;21.41;75.88
54022;BME280;39936;51.058;17.220;2023-08-12T21:03:54;101642.12;;;21.16;75.43
54022;BME280;39936;51.058;17.220;2023-08-12T21:07:58;101668.36;;;21.25;75.36
54022;BME280;39936;51.058;17.220;2023-08-12T21:11:55;101668.95;;;21.14;76.71
54022;BME280;39936;51.058;17.220;2023-08-12T21:15:36;101666.04;;;20.86;79.13
54022;BME280;39936;51.058;17.220;2023-08-12T21:19:14;101666.33;;;20.59;80.80
54022;BME280;39936;51.058;17.220;2023-08-12T21:23:29;101670.55;;;20.48;81.00
54022;BME280;39936;51.058;17.220;2023-08-12T21:27:20;101668.56;;;20.36;82.78
54022;BME280;39936;51.058;17.220;2023-08-12T21:31:02;101664.93;;;20.32;81.86
54022;BME280;39936;51.058;17.220;2023-08-12T21:35:07;101663.07;;;20.34;81.22
54022;BME280;39936;51.058;17.220;2023-08-12T21:38:40;101636.09;;;20.16;80.69
54022;BME280;39936;51.058;17.220;2023-08-12T21:42:41;101660.95;;;20.29;80.76
54022;BME280;39936;51.058;17.220;2023-08-12T21:45:56;101664.65;;;20.20;80.66
54022;BME280;39936;51.058;17.220;2023-08-12T21:49:12;101667.62;;;20.11;80.99
54022;BME280;39936;51.058;17.220;2023-08-12T22:08:09;101662.45;;;19.65;82.45
54022;BME280;39936;51.058;17.220;2023-08-12T22:11:50;101662.03;;;19.57;83.19
54022;BME280;39936;51.058;17.220;2023-08-12T22:15:11;101665.84;;;19.46;83.20
54022;BME280;39936;51.058;17.220;2023-08-12T22:18:56;101666.50;;;19.35;84.45
54022;BME280;39936;51.058;17.220;2023-08-12T22:22:16;101670.74;;;19.27;84.85